Jon Santiago

Scout - Las Palmas
6 Jan 2028
Thursday
Process

Personality

Adaptability (1) Ambition (16) Controversy (1) Loyalty (14) Pressure (3) Professionalism (11) Sportsmanship (10) Temperament (9)

Profile

Coaching Style Democratic
License Continental Pro
Determination 13
Man Management 9
Motivating 6
Discipline 4
Job Satisfaction
41%
Fatigue
0%
Role Scout
Wage 21.2K p/w
Contract 14.03.2029

Performance

Behaviour Good
Training Effectiveness
17%
Player Development
20%
Injury Prevention
60%
Tactical Implementation
50%

Recent Events

Attended a recruitment meeting now
Recommended a transfer target now
Recommended a transfer target now
Recommended a transfer target now
Recommended a transfer target now
Recommended a transfer target now
Presented a dossier to the board 7d ago
Presented a dossier to the board 7d ago

Currently Monitoring

101
Player Club Status Ability Confidence Watched Last Observed Latest Vote
Mao Hosoya Everton Negotiating 134 / 135 90% 1 01.01.2028 -
Pau Sans Zaragoza Negotiating 124 / 125 83% 1 01.01.2028 -
Álvaro Banquero Independiente Negotiating 116 / 127 40% 1 01.01.2028 -
Lautaro Vera Platense Active 97 / 99 40% 1 01.01.2028 -
Mohamed Bolivar Barranquilla Active 94 / 100 40% 1 23.08.2027 -
Ignacio Fernández Boston River Active 89 / 95 40% 1 23.08.2027 -
Gift Udoh Ikorodu City Active 88 / 98 40% 1 17.08.2027 -
Eddy Kouadio Crotone Active 108 / 116 40% 1 17.08.2027 -
Agustín Obregón River Plate Active 108 / 126 40% 1 17.08.2027 -
Davide Bartesaghi AC Milan Active 135 / 137 40% 6 09.08.2027 -
Jan Bürger Gillingham Active 114 / 127 40% 4 09.08.2027 -
Kazunari Kita Real Sociedad Active 106 / 112 40% 2 19.07.2027 -
Izan Merino Málaga Active 129 / 129 40% 4 19.07.2027 -
David Valencia Alianza Petrolera Active 122 / 135 40% 1 19.07.2027 -
Josh King Chelsea Active 141 / 150 40% 3 28.06.2027 -
Ricky Atletico Venezuela Active 92 / 96 40% 1 28.06.2027 -
Gadiel Paoli River Plate Active 88 / 99 40% 1 28.06.2027 -
Pedro de la Vega FC Dallas Active 133 / 134 66% 1 01.06.2027 Approve
Konstantin Tyukavin Inter Active 132 / 133 66% 1 01.06.2027 Approve
Sampson Dweh Anderlecht Active 133 / 134 66% 1 01.06.2027 Approve
Martin Cedidla Spartak Moscow Active 131 / 132 66% 1 01.06.2027 Approve
Léo Scienza Southampton Active 136 / 136 66% 1 01.06.2027 Approve
Ramiro Buratti River Plate Active 96 / 106 40% 1 01.06.2027 -
Víctor Mollejo Burgos Active 122 / 120 40% 1 31.05.2027 -
Elijah Adebayo Luton Town Active 128 / 127 40% 1 31.05.2027 -
Morgan Whittaker Middlesbrough Active 128 / 135 40% 1 31.05.2027 -
Zane Albarus Cambridge United Active 91 / 100 40% 4 30.05.2027 -
Finley McAllister Grimsby Town Active 96 / 93 40% 1 30.05.2027 -
José Pachuca Puebla Active 117 / 117 40% 6 28.05.2027 -
Keagan Tau Ajax Cape Town Active 102 / 106 40% 2 28.05.2027 -
Jon Garro Real Sociedad Active 91 / 88 40% 3 27.05.2027 -
Christos Mouzakitis Hull City Active 129 / 136 40% 6 26.05.2027 -
Jofre Torrents Ajax Active 120 / 128 40% 6 26.05.2027 -
Yusi Alavés Active 133 / 136 40% 2 21.05.2027 -
Dylan Lawlor Cardiff City Active 112 / 125 40% 1 21.05.2027 -
Ernie Weaver AFC Wimbledon Active 113 / 118 40% 7 20.05.2027 -
Joel McGregor Swindon Town Active 89 / 98 40% 2 20.05.2027 -
Riley Owen Trento Active 100 / 104 40% 5 18.05.2027 -
Sascha Britschgi Padova Active 124 / 125 40% 2 16.05.2027 -
João Teixeira Porto Active 109 / 119 40% 4 16.05.2027 -
Lucas Høgsberg RC Strasbourg Active 142 / 139 40% 2 16.05.2027 -
Kevin Vazquez Cruz Azul Active 132 / 149 40% 9 15.05.2027 -
Christ Inao Oulaï Fiorentina Active 131 / 143 40% 2 14.05.2027 -
Louis Leroux FC Nantes Active 127 / 124 40% 1 12.05.2027 -
Johan Manzambi Newcastle United Active 135 / 142 40% 1 12.05.2027 -
Pietro Reggiori Pro Patria Active 93 / 102 40% 3 10.05.2027 -
Darryl Bakola Padova Active 102 / 113 40% 1 05.05.2027 -
Matías Gómez Granada Active 118 / 115 40% 2 02.05.2027 -
Tiago Freitas Benfica Active 105 / 113 40% 2 29.04.2027 -
Toni Tamarit Alverca Active 115 / 122 40% 2 28.04.2027 -
Daniel Costa Sporting CP Active 94 / 104 40% 2 27.04.2027 -
Finn Jeltsch VfB Stuttgart Active 130 / 145 40% 2 27.04.2027 -
Cheveyo Tsawa Club Brugge Active 116 / 121 40% 3 22.04.2027 -
Noah Nartey Olympique Lyonnais Active 134 / 131 40% 1 21.04.2027 -
Juan Giménez Celta Active 114 / 124 40% 1 16.04.2027 -
Martim Cunha Porto Active 106 / 111 40% 2 15.04.2027 -
Caleb Yirenkyi Coventry City Active 141 / 140 40% 3 12.04.2027 -
Lucas Agazzi Defensor Sporting Active 114 / 137 40% 1 12.04.2027 -
Matvey Kislyak CSKA Moscow Active 139 / 133 40% 1 08.04.2027 -
James Dornelly Peterborough United Active 106 / 110 40% 3 05.04.2027 -
Bernardo Lima Porto Active 91 / 104 40% 1 02.04.2027 -
David Ozoh Derby County Active 118 / 128 40% 1 01.04.2027 -
Percy Jali Free State Stars Active 94 / 98 40% 2 28.03.2027 -
Ibrahim Maza Bayer Leverkusen Active 149 / 146 40% 1 27.03.2027 -
Gonçalo Oliveira Benfica Active 111 / 120 40% 1 18.03.2027 -
Guillaume Restes Toulouse FC Active 135 / 145 40% 1 12.01.2027 -
Agustín Albrini Independiente Rivadavia Active 91 / 101 40% 1 12.01.2027 -
Francisco Álvarez Argentinos Juniors Active 133 / 131 40% 2 09.12.2026 -
José Hurtado Bragantino Active 118 / 115 40% 1 09.12.2026 -
Aidan Morris Middlesbrough Active 128 / 129 40% 1 09.12.2026 -
Dara O'Shea Ipswich Town Active 133 / 137 40% 2 21.11.2026 -
Felipe Peña Biafore Lanús Active 126 / 135 40% 2 21.11.2026 -
Jesús Orozco Chiquete Cruz Azul Active 131 / 136 40% 2 21.11.2026 -
Santiago González Tigre Active 126 / 120 40% 2 18.11.2026 -
Welington Southampton Active 123 / 125 40% 1 18.11.2026 -
Joaquim Tigres Active 131 / 135 40% 3 10.11.2026 -
Alexis Gutiérrez Club America Active 133 / 125 40% 1 10.11.2026 -
Alejandro Francés Girona Active 125 / 136 40% 1 10.11.2026 -
Leandro Lozano Boca Juniors Active 124 / 119 40% 2 06.11.2026 -
Israel Reyes CSKA Moscow Active 146 / 128 40% 1 06.11.2026 -
Milan van Ewijk Mansfield Town Active 134 / 128 40% 1 05.11.2026 -
Víctor Chust Elche Active 137 / 127 40% 1 05.11.2026 -
Adalberto Carrasquilla Pumas UNAM Active 121 / 136 40% 3 03.11.2026 -
Matías Pérez Racing Club Active 131 / 115 40% 1 03.11.2026 -
Florentino Luís Ipswich Town Active 140 / 141 40% 1 12.10.2026 -
Ramón Juárez Club America Active 133 / 142 40% 1 12.10.2026 -
Federico Navarro Rosario Central Active 116 / 134 40% 1 10.10.2026 -
Ryan Sessegnon Fulham Active 151 / 144 40% 1 10.10.2026 -
Marco Pellegrino Boca Juniors Active 127 / 133 40% 1 09.10.2026 -
Fran Beltrán Girona Active 146 / 138 40% 1 07.10.2026 -
Lautaro Blanco Boca Juniors Active 131 / 124 40% 1 06.10.2026 -
Nazareno Colombo Racing Club Active 123 / 128 40% 1 06.10.2026 -
Flavien-Enzo Boyomo Osasuna Active 153 / 151 40% 1 05.10.2026 -
Andrés Gómez Vasco da Gama Active 138 / 142 40% 1 15.09.2026 -
Noah Sadiki Sunderland Active 134 / 146 40% 1 15.09.2026 -
Alan Lescano Argentinos Juniors Active 129 / 138 40% 1 14.09.2026 -
Rémi Lemoine Chamois Niortais Active 154 / 151 40% 1 14.09.2026 -
Marcel Ruiz RC Lens Active 145 / 135 40% 1 11.09.2026 -
Rico Lewis Manchester City Active 151 / 150 40% 1 07.09.2026 -
Christantus Uche Getafe Active 136 / 144 40% 1 07.09.2026 -
Jadon Sancho Manchester United Active 149 / 152 40% 1 07.09.2026 -